sensor_id;sensor_type;location;lat;lon;timestamp;P1;durP1;ratioP1;P2;durP2;ratioP2
46222;SDS011;31943;51.410;7.564;2023-02-15T07:28:00;21.70;;;15.05;;
46222;SDS011;31943;51.410;7.564;2023-02-15T07:30:27;20.73;;;15.27;;
46222;SDS011;31943;51.410;7.564;2023-02-15T07:32:54;19.60;;;13.75;;
46222;SDS011;31943;51.410;7.564;2023-02-15T07:35:20;21.95;;;14.65;;
46222;SDS011;31943;51.410;7.564;2023-02-15T07:37:45;22.38;;;14.43;;
46222;SDS011;31943;51.410;7.564;2023-02-15T07:40:11;23.20;;;14.48;;
46222;SDS011;31943;51.410;7.564;2023-02-15T07:42:39;20.65;;;13.85;;
46222;SDS011;31943;51.410;7.564;2023-02-15T07:45:04;22.05;;;13.27;;
46222;SDS011;31943;51.410;7.564;2023-02-15T07:47:30;19.40;;;13.73;;
46222;SDS011;31943;51.410;7.564;2023-02-15T07:49:56;21.90;;;13.88;;
46222;SDS011;31943;51.410;7.564;2023-02-15T07:52:22;19.63;;;13.65;;
46222;SDS011;31943;51.410;7.564;2023-02-15T07:54:48;20.08;;;13.60;;
46222;SDS011;31943;51.410;7.564;2023-02-15T07:57:13;21.02;;;13.80;;
46222;SDS011;31943;51.410;7.564;2023-02-15T07:59:41;21.10;;;14.15;;
46222;SDS011;31943;51.410;7.564;2023-02-15T08:02:08;20.70;;;14.43;;
46222;SDS011;31943;51.410;7.564;2023-02-15T08:04:34;24.20;;;15.25;;
46222;SDS011;31943;51.410;7.564;2023-02-15T08:07:00;20.95;;;13.90;;
46222;SDS011;31943;51.410;7.564;2023-02-15T08:09:26;22.83;;;15.77;;
46222;SDS011;31943;51.410;7.564;2023-02-15T08:11:51;25.52;;;15.98;;
46222;SDS011;31943;51.410;7.564;2023-02-15T08:14:17;24.75;;;16.17;;
46222;SDS011;31943;51.410;7.564;2023-02-15T08:16:47;22.77;;;16.63;;
46222;SDS011;31943;51.410;7.564;2023-02-15T08:19:15;26.75;;;17.77;;
46222;SDS011;31943;51.410;7.564;2023-02-15T08:21:44;22.08;;;15.30;;
46222;SDS011;31943;51.410;7.564;2023-02-15T08:24:12;23.75;;;14.98;;
46222;SDS011;31943;51.410;7.564;2023-02-15T08:26:39;24.73;;;15.68;;
46222;SDS011;31943;51.410;7.564;2023-02-15T08:29:05;20.42;;;14.90;;
46222;SDS011;31943;51.410;7.564;2023-02-15T08:31:31;22.42;;;14.45;;
46222;SDS011;31943;51.410;7.564;2023-02-15T08:33:58;24.98;;;16.45;;
46222;SDS011;31943;51.410;7.564;2023-02-15T08:36:25;24.15;;;16.05;;
46222;SDS011;31943;51.410;7.564;2023-02-15T08:38:52;24.13;;;16.50;;
46222;SDS011;31943;51.410;7.564;2023-02-15T08:41:21;25.77;;;17.63;;
46222;SDS011;31943;51.410;7.564;2023-02-15T08:43:50;29.95;;;20.27;;
46222;SDS011;31943;51.410;7.564;2023-02-15T08:46:20;29.05;;;21.42;;
46222;SDS011;31943;51.410;7.564;2023-02-15T08:48:47;32.17;;;20.40;;
46222;SDS011;31943;51.410;7.564;2023-02-15T08:51:15;29.38;;;20.20;;
46222;SDS011;31943;51.410;7.564;2023-02-15T08:53:42;27.40;;;18.15;;
46222;SDS011;31943;51.410;7.564;2023-02-15T08:56:09;80.07;;;55.78;;
46222;SDS011;31943;51.410;7.564;2023-02-15T08:58:36;47.50;;;31.88;;
46222;SDS011;31943;51.410;7.564;2023-02-15T09:01:08;29.92;;;20.92;;
46222;SDS011;31943;51.410;7.564;2023-02-15T09:03:34;26.52;;;19.25;;
46222;SDS011;31943;51.410;7.564;2023-02-15T09:06:00;28.67;;;18.80;;
46222;SDS011;31943;51.410;7.564;2023-02-15T09:08:31;29.08;;;21.85;;
46222;SDS011;31943;51.410;7.564;2023-02-15T09:11:04;28.42;;;19.65;;
46222;SDS011;31943;51.410;7.564;2023-02-15T09:13:32;28.83;;;20.02;;
46222;SDS011;31943;51.410;7.564;2023-02-15T09:15:58;28.60;;;19.65;;
46222;SDS011;31943;51.410;7.564;2023-02-15T09:18:24;29.15;;;18.23;;
46222;SDS011;31943;51.410;7.564;2023-02-15T09:20:50;24.88;;;18.00;;
46222;SDS011;31943;51.410;7.564;2023-02-15T09:23:16;31.30;;;19.20;;
46222;SDS011;31943;51.410;7.564;2023-02-15T09:25:43;24.50;;;18.73;;
46222;SDS011;31943;51.410;7.564;2023-02-15T09:28:09;27.88;;;19.80;;
46222;SDS011;31943;51.410;7.564;2023-02-15T09:30:36;28.67;;;18.25;;
46222;SDS011;31943;51.410;7.564;2023-02-15T09:33:02;30.88;;;18.92;;
46222;SDS011;31943;51.410;7.564;2023-02-15T09:35:27;25.30;;;18.15;;
46222;SDS011;31943;51.410;7.564;2023-02-15T09:37:53;29.23;;;18.17;;
46222;SDS011;31943;51.410;7.564;2023-02-15T09:40:21;23.65;;;17.38;;
46222;SDS011;31943;51.410;7.564;2023-02-15T09:42:51;25.88;;;17.73;;
46222;SDS011;31943;51.410;7.564;2023-02-15T09:48:40;23.17;;;16.67;;
46222;SDS011;31943;51.410;7.564;2023-02-15T09:54:12;23.27;;;16.45;;
46222;SDS011;31943;51.410;7.564;2023-02-15T09:56:48;22.73;;;16.63;;
46222;SDS011;31943;51.410;7.564;2023-02-15T09:59:22;23.60;;;17.13;;
46222;SDS011;31943;51.410;7.564;2023-02-15T10:02:02;25.65;;;17.90;;
46222;SDS011;31943;51.410;7.564;2023-02-15T10:04:48;29.10;;;19.90;;
46222;SDS011;31943;51.410;7.564;2023-02-15T10:07:26;27.42;;;18.35;;
46222;SDS011;31943;51.410;7.564;2023-02-15T10:10:12;23.90;;;17.38;;
46222;SDS011;31943;51.410;7.564;2023-02-15T10:12:48;26.52;;;18.55;;
46222;SDS011;31943;51.410;7.564;2023-02-15T10:15:33;39.72;;;28.48;;
46222;SDS011;31943;51.410;7.564;2023-02-15T10:18:17;42.08;;;29.15;;
46222;SDS011;31943;51.410;7.564;2023-02-15T10:20:57;26.35;;;19.80;;
46222;SDS011;31943;51.410;7.564;2023-02-15T10:23:36;25.85;;;19.10;;
46222;SDS011;31943;51.410;7.564;2023-02-15T10:26:11;25.67;;;17.90;;
46222;SDS011;31943;51.410;7.564;2023-02-15T10:28:45;23.92;;;15.73;;
46222;SDS011;31943;51.410;7.564;2023-02-15T10:31:17;20.63;;;14.60;;
46222;SDS011;31943;51.410;7.564;2023-02-15T10:33:48;22.25;;;14.65;;
46222;SDS011;31943;51.410;7.564;2023-02-15T10:36:28;21.27;;;15.98;;
46222;SDS011;31943;51.410;7.564;2023-02-15T10:39:07;20.00;;;14.90;;
46222;SDS011;31943;51.410;7.564;2023-02-15T10:41:44;24.15;;;14.57;;
46222;SDS011;31943;51.410;7.564;2023-02-15T10:44:25;20.58;;;14.07;;
46222;SDS011;31943;51.410;7.564;2023-02-15T10:47:13;23.27;;;13.68;;
46222;SDS011;31943;51.410;7.564;2023-02-15T10:52:53;20.52;;;12.13;;
46222;SDS011;31943;51.410;7.564;2023-02-15T10:55:38;20.45;;;11.88;;
46222;SDS011;31943;51.410;7.564;2023-02-15T10:58:17;16.13;;;12.13;;
46222;SDS011;31943;51.410;7.564;2023-02-15T11:00:54;14.18;;;10.15;;
46222;SDS011;31943;51.410;7.564;2023-02-15T11:03:39;17.25;;;10.23;;
46222;SDS011;31943;51.410;7.564;2023-02-15T11:06:19;13.98;;;9.18;;
46222;SDS011;31943;51.410;7.564;2023-02-15T11:08:49;12.80;;;8.48;;
46222;SDS011;31943;51.410;7.564;2023-02-15T11:11:21;14.00;;;8.43;;
46222;SDS011;31943;51.410;7.564;2023-02-15T11:13:52;13.75;;;9.48;;
46222;SDS011;31943;51.410;7.564;2023-02-15T11:16:22;13.05;;;8.00;;
46222;SDS011;31943;51.410;7.564;2023-02-15T11:18:55;13.48;;;8.50;;
46222;SDS011;31943;51.410;7.564;2023-02-15T11:21:26;13.27;;;8.55;;
46222;SDS011;31943;51.410;7.564;2023-02-15T11:23:55;12.70;;;7.32;;
46222;SDS011;31943;51.410;7.564;2023-02-15T11:26:22;13.27;;;7.78;;
46222;SDS011;31943;51.410;7.564;2023-02-15T11:28:53;12.70;;;8.13;;
46222;SDS011;31943;51.410;7.564;2023-02-15T11:31:23;13.85;;;7.90;;
46222;SDS011;31943;51.410;7.564;2023-02-15T11:33:51;11.55;;;7.60;;
46222;SDS011;31943;51.410;7.564;2023-02-15T11:36:22;12.38;;;7.95;;
46222;SDS011;31943;51.410;7.564;2023-02-15T11:38:52;16.13;;;9.90;;
46222;SDS011;31943;51.410;7.564;2023-02-15T11:41:24;11.40;;;7.10;;
46222;SDS011;31943;51.410;7.564;2023-02-15T11:43:56;11.70;;;7.40;;
46222;SDS011;31943;51.410;7.564;2023-02-15T11:46:25;12.27;;;7.05;;
46222;SDS011;31943;51.410;7.564;2023-02-15T11:48:51;11.30;;;7.13;;
46222;SDS011;31943;51.410;7.564;2023-02-15T11:51:17;9.77;;;6.65;;
46222;SDS011;31943;51.410;7.564;2023-02-15T11:53:47;10.98;;;7.18;;
46222;SDS011;31943;51.410;7.564;2023-02-15T11:56:14;9.65;;;6.55;;
46222;SDS011;31943;51.410;7.564;2023-02-15T11:58:41;11.35;;;7.70;;
46222;SDS011;31943;51.410;7.564;2023-02-15T12:01:15;13.10;;;8.52;;
46222;SDS011;31943;51.410;7.564;2023-02-15T12:03:46;10.30;;;6.97;;
46222;SDS011;31943;51.410;7.564;2023-02-15T12:06:16;11.40;;;6.78;;
46222;SDS011;31943;51.410;7.564;2023-02-15T12:08:51;9.88;;;7.20;;
46222;SDS011;31943;51.410;7.564;2023-02-15T12:11:22;9.70;;;6.38;;
46222;SDS011;31943;51.410;7.564;2023-02-15T12:13:53;9.77;;;6.60;;
46222;SDS011;31943;51.410;7.564;2023-02-15T12:16:20;9.30;;;6.70;;
46222;SDS011;31943;51.410;7.564;2023-02-15T12:18:46;12.13;;;5.65;;
46222;SDS011;31943;51.410;7.564;2023-02-15T12:21:14;12.25;;;7.18;;
46222;SDS011;31943;51.410;7.564;2023-02-15T12:23:42;16.35;;;12.18;;
46222;SDS011;31943;51.410;7.564;2023-02-15T12:26:14;13.38;;;9.35;;
46222;SDS011;31943;51.410;7.564;2023-02-15T12:28:40;16.38;;;11.55;;
46222;SDS011;31943;51.410;7.564;2023-02-15T12:31:09;9.70;;;7.25;;
46222;SDS011;31943;51.410;7.564;2023-02-15T12:33:46;12.05;;;9.23;;
46222;SDS011;31943;51.410;7.564;2023-02-15T12:36:15;12.75;;;7.60;;
46222;SDS011;31943;51.410;7.564;2023-02-15T12:38:43;11.38;;;8.48;;
46222;SDS011;31943;51.410;7.564;2023-02-15T12:41:30;12.20;;;6.75;;
46222;SDS011;31943;51.410;7.564;2023-02-15T12:44:03;16.33;;;9.40;;
46222;SDS011;31943;51.410;7.564;2023-02-15T12:46:31;12.40;;;8.00;;
46222;SDS011;31943;51.410;7.564;2023-02-15T12:49:07;10.93;;;6.57;;
46222;SDS011;31943;51.410;7.564;2023-02-15T12:51:42;14.95;;;7.00;;
46222;SDS011;31943;51.410;7.564;2023-02-15T12:54:17;17.73;;;10.68;;
46222;SDS011;31943;51.410;7.564;2023-02-15T12:56:52;9.40;;;6.55;;
46222;SDS011;31943;51.410;7.564;2023-02-15T12:59:18;10.90;;;7.97;;
46222;SDS011;31943;51.410;7.564;2023-02-15T13:01:44;11.98;;;7.93;;
46222;SDS011;31943;51.410;7.564;2023-02-15T13:04:14;13.25;;;8.90;;
46222;SDS011;31943;51.410;7.564;2023-02-15T13:06:48;11.68;;;8.45;;
46222;SDS011;31943;51.410;7.564;2023-02-15T13:09:15;10.52;;;7.22;;
46222;SDS011;31943;51.410;7.564;2023-02-15T13:11:44;10.73;;;7.80;;
46222;SDS011;31943;51.410;7.564;2023-02-15T13:14:19;11.20;;;7.13;;
46222;SDS011;31943;51.410;7.564;2023-02-15T13:16:47;11.57;;;7.28;;
46222;SDS011;31943;51.410;7.564;2023-02-15T13:19:16;13.43;;;7.03;;
46222;SDS011;31943;51.410;7.564;2023-02-15T13:21:44;13.27;;;6.63;;
46222;SDS011;31943;51.410;7.564;2023-02-15T13:24:15;10.48;;;7.03;;
46222;SDS011;31943;51.410;7.564;2023-02-15T13:26:45;11.50;;;6.32;;
46222;SDS011;31943;51.410;7.564;2023-02-15T13:29:15;11.50;;;6.78;;
46222;SDS011;31943;51.410;7.564;2023-02-15T13:31:47;12.00;;;7.10;;
46222;SDS011;31943;51.410;7.564;2023-02-15T13:34:15;10.13;;;6.43;;
46222;SDS011;31943;51.410;7.564;2023-02-15T13:36:48;14.30;;;6.90;;
46222;SDS011;31943;51.410;7.564;2023-02-15T13:39:22;13.13;;;7.70;;
46222;SDS011;31943;51.410;7.564;2023-02-15T13:41:57;12.02;;;6.80;;
46222;SDS011;31943;51.410;7.564;2023-02-15T13:44:34;11.32;;;6.80;;
46222;SDS011;31943;51.410;7.564;2023-02-15T13:47:20;10.52;;;7.00;;
46222;SDS011;31943;51.410;7.564;2023-02-15T13:50:00;9.85;;;6.40;;
46222;SDS011;31943;51.410;7.564;2023-02-15T13:52:38;10.02;;;6.55;;
46222;SDS011;31943;51.410;7.564;2023-02-15T13:55:26;10.73;;;6.15;;
46222;SDS011;31943;51.410;7.564;2023-02-15T14:00:52;9.63;;;6.07;;
46222;SDS011;31943;51.410;7.564;2023-02-15T14:03:44;8.35;;;5.80;;
46222;SDS011;31943;51.410;7.564;2023-02-15T14:09:18;10.00;;;6.68;;
46222;SDS011;31943;51.410;7.564;2023-02-15T14:11:55;10.57;;;6.05;;
46222;SDS011;31943;51.410;7.564;2023-02-15T14:14:50;12.68;;;7.05;;
46222;SDS011;31943;51.410;7.564;2023-02-15T14:17:39;11.52;;;6.40;;
46222;SDS011;31943;51.410;7.564;2023-02-15T14:20:17;9.00;;;6.40;;
46222;SDS011;31943;51.410;7.564;2023-02-15T14:22:49;9.32;;;6.35;;
46222;SDS011;31943;51.410;7.564;2023-02-15T14:25:24;11.55;;;6.72;;
46222;SDS011;31943;51.410;7.564;2023-02-15T14:27:56;10.13;;;6.65;;
46222;SDS011;31943;51.410;7.564;2023-02-15T14:30:29;10.20;;;6.47;;
46222;SDS011;31943;51.410;7.564;2023-02-15T14:32:59;10.88;;;6.45;;
46222;SDS011;31943;51.410;7.564;2023-02-15T14:35:31;11.90;;;6.25;;
46222;SDS011;31943;51.410;7.564;2023-02-15T14:37:58;14.52;;;6.68;;
46222;SDS011;31943;51.410;7.564;2023-02-15T14:40:32;10.88;;;7.00;;
46222;SDS011;31943;51.410;7.564;2023-02-15T14:43:04;10.73;;;6.90;;
46222;SDS011;31943;51.410;7.564;2023-02-15T14:45:35;11.57;;;7.28;;
46222;SDS011;31943;51.410;7.564;2023-02-15T14:48:15;12.02;;;7.28;;
46222;SDS011;31943;51.410;7.564;2023-02-15T14:50:47;12.65;;;7.32;;
46222;SDS011;31943;51.410;7.564;2023-02-15T14:53:20;13.13;;;7.85;;
46222;SDS011;31943;51.410;7.564;2023-02-15T14:56:16;12.20;;;7.53;;
46222;SDS011;31943;51.410;7.564;2023-02-15T14:59:11;13.27;;;7.82;;
46222;SDS011;31943;51.410;7.564;2023-02-15T15:01:40;10.80;;;6.95;;
46222;SDS011;31943;51.410;7.564;2023-02-15T15:04:12;12.73;;;7.38;;
46222;SDS011;31943;51.410;7.564;2023-02-15T15:07:00;13.13;;;7.60;;
46222;SDS011;31943;51.410;7.564;2023-02-15T15:09:33;13.60;;;8.02;;
46222;SDS011;31943;51.410;7.564;2023-02-15T15:12:13;11.32;;;7.00;;
46222;SDS011;31943;51.410;7.564;2023-02-15T15:15:01;15.48;;;7.65;;
46222;SDS011;31943;51.410;7.564;2023-02-15T15:23:38;12.60;;;7.82;;
46222;SDS011;31943;51.410;7.564;2023-02-15T15:26:23;10.88;;;6.95;;
46222;SDS011;31943;51.410;7.564;2023-02-15T15:28:53;12.10;;;7.28;;
46222;SDS011;31943;51.410;7.564;2023-02-15T15:31:22;11.00;;;6.40;;
46222;SDS011;31943;51.410;7.564;2023-02-15T15:40:16;10.70;;;6.50;;
46222;SDS011;31943;51.410;7.564;2023-02-15T15:46:05;9.43;;;6.22;;
46222;SDS011;31943;51.410;7.564;2023-02-15T15:48:38;8.55;;;5.90;;
46222;SDS011;31943;51.410;7.564;2023-02-15T15:51:09;10.55;;;5.93;;
46222;SDS011;31943;51.410;7.564;2023-02-15T15:53:39;13.43;;;6.35;;
46222;SDS011;31943;51.410;7.564;2023-02-15T15:56:11;7.90;;;5.78;;
46222;SDS011;31943;51.410;7.564;2023-02-15T15:58:43;9.75;;;5.72;;
46222;SDS011;31943;51.410;7.564;2023-02-15T16:01:12;10.02;;;5.85;;
46222;SDS011;31943;51.410;7.564;2023-02-15T16:03:47;7.45;;;5.55;;
46222;SDS011;31943;51.410;7.564;2023-02-15T16:06:14;8.57;;;5.35;;
46222;SDS011;31943;51.410;7.564;2023-02-15T16:08:52;9.43;;;5.78;;
46222;SDS011;31943;51.410;7.564;2023-02-15T16:11:21;11.98;;;5.80;;
46222;SDS011;31943;51.410;7.564;2023-02-15T16:13:50;9.37;;;5.53;;
46222;SDS011;31943;51.410;7.564;2023-02-15T16:16:19;9.68;;;5.55;;
46222;SDS011;31943;51.410;7.564;2023-02-15T16:18:47;9.40;;;6.07;;
46222;SDS011;31943;51.410;7.564;2023-02-15T16:21:14;9.65;;;6.25;;
46222;SDS011;31943;51.410;7.564;2023-02-15T16:23:50;12.90;;;7.07;;
46222;SDS011;31943;51.410;7.564;2023-02-15T16:26:37;10.82;;;7.03;;
46222;SDS011;31943;51.410;7.564;2023-02-15T16:29:14;12.88;;;6.97;;
46222;SDS011;31943;51.410;7.564;2023-02-15T16:31:41;10.40;;;6.97;;
46222;SDS011;31943;51.410;7.564;2023-02-15T16:34:08;9.20;;;6.40;;
46222;SDS011;31943;51.410;7.564;2023-02-15T16:36:42;9.80;;;6.43;;
46222;SDS011;31943;51.410;7.564;2023-02-15T16:39:11;13.65;;;6.72;;
46222;SDS011;31943;51.410;7.564;2023-02-15T16:41:44;11.20;;;7.68;;
46222;SDS011;31943;51.410;7.564;2023-02-15T16:44:14;11.90;;;7.07;;
46222;SDS011;31943;51.410;7.564;2023-02-15T16:46:43;11.88;;;7.78;;
46222;SDS011;31943;51.410;7.564;2023-02-15T16:49:14;14.52;;;7.78;;
46222;SDS011;31943;51.410;7.564;2023-02-15T16:51:43;11.60;;;7.43;;
46222;SDS011;31943;51.410;7.564;2023-02-15T16:54:13;11.00;;;7.30;;
46222;SDS011;31943;51.410;7.564;2023-02-15T16:56:45;12.88;;;7.88;;
46222;SDS011;31943;51.410;7.564;2023-02-15T16:59:14;12.80;;;9.15;;
46222;SDS011;31943;51.410;7.564;2023-02-15T17:01:47;18.55;;;12.30;;
46222;SDS011;31943;51.410;7.564;2023-02-15T17:04:20;56.03;;;35.10;;
46222;SDS011;31943;51.410;7.564;2023-02-15T17:07:00;37.63;;;21.45;;
46222;SDS011;31943;51.410;7.564;2023-02-15T17:09:29;22.25;;;14.55;;
46222;SDS011;31943;51.410;7.564;2023-02-15T17:12:00;15.85;;;11.63;;
46222;SDS011;31943;51.410;7.564;2023-02-15T17:14:29;18.40;;;12.10;;
46222;SDS011;31943;51.410;7.564;2023-02-15T17:17:05;13.93;;;8.27;;
46222;SDS011;31943;51.410;7.564;2023-02-15T17:19:33;16.13;;;10.60;;
46222;SDS011;31943;51.410;7.564;2023-02-15T17:22:14;16.05;;;10.20;;
46222;SDS011;31943;51.410;7.564;2023-02-15T17:24:44;16.00;;;10.30;;
46222;SDS011;31943;51.410;7.564;2023-02-15T17:27:24;13.02;;;9.20;;
46222;SDS011;31943;51.410;7.564;2023-02-15T17:29:55;13.98;;;9.05;;
46222;SDS011;31943;51.410;7.564;2023-02-15T17:32:23;15.32;;;8.32;;
46222;SDS011;31943;51.410;7.564;2023-02-15T17:34:59;13.52;;;8.95;;
46222;SDS011;31943;51.410;7.564;2023-02-15T17:37:31;13.35;;;8.90;;
46222;SDS011;31943;51.410;7.564;2023-02-15T17:40:14;15.38;;;10.50;;
46222;SDS011;31943;51.410;7.564;2023-02-15T17:42:53;13.55;;;8.52;;
46222;SDS011;31943;51.410;7.564;2023-02-15T17:45:21;12.02;;;8.00;;
46222;SDS011;31943;51.410;7.564;2023-02-15T17:47:50;12.50;;;7.82;;
46222;SDS011;31943;51.410;7.564;2023-02-15T17:50:20;11.57;;;7.57;;
46222;SDS011;31943;51.410;7.564;2023-02-15T17:52:48;13.65;;;9.73;;
46222;SDS011;31943;51.410;7.564;2023-02-15T17:55:21;11.77;;;8.48;;
46222;SDS011;31943;51.410;7.564;2023-02-15T17:57:51;15.27;;;9.38;;
46222;SDS011;31943;51.410;7.564;2023-02-15T18:00:17;15.75;;;9.98;;
46222;SDS011;31943;51.410;7.564;2023-02-15T18:02:43;12.88;;;9.10;;
46222;SDS011;31943;51.410;7.564;2023-02-15T18:05:12;15.43;;;9.50;;
46222;SDS011;31943;51.410;7.564;2023-02-15T18:07:39;21.73;;;14.05;;
46222;SDS011;31943;51.410;7.564;2023-02-15T18:10:11;13.48;;;8.27;;
46222;SDS011;31943;51.410;7.564;2023-02-15T18:12:39;11.05;;;8.43;;
46222;SDS011;31943;51.410;7.564;2023-02-15T18:15:08;11.60;;;8.35;;
46222;SDS011;31943;51.410;7.564;2023-02-15T18:17:36;12.20;;;8.30;;
46222;SDS011;31943;51.410;7.564;2023-02-15T18:20:05;10.35;;;7.55;;
46222;SDS011;31943;51.410;7.564;2023-02-15T18:22:43;11.52;;;8.32;;
46222;SDS011;31943;51.410;7.564;2023-02-15T18:25:11;10.13;;;7.07;;
46222;SDS011;31943;51.410;7.564;2023-02-15T18:27:37;10.50;;;7.85;;
46222;SDS011;31943;51.410;7.564;2023-02-15T18:30:18;13.00;;;7.93;;
46222;SDS011;31943;51.410;7.564;2023-02-15T18:32:46;10.60;;;8.27;;
46222;SDS011;31943;51.410;7.564;2023-02-15T18:35:16;10.38;;;8.10;;
46222;SDS011;31943;51.410;7.564;2023-02-15T18:37:44;10.10;;;7.22;;
46222;SDS011;31943;51.410;7.564;2023-02-15T18:40:13;13.20;;;8.32;;
46222;SDS011;31943;51.410;7.564;2023-02-15T18:42:42;13.43;;;9.07;;
46222;SDS011;31943;51.410;7.564;2023-02-15T18:45:11;12.25;;;8.95;;
46222;SDS011;31943;51.410;7.564;2023-02-15T18:47:41;11.50;;;7.97;;
46222;SDS011;31943;51.410;7.564;2023-02-15T18:50:10;12.25;;;9.07;;
46222;SDS011;31943;51.410;7.564;2023-02-15T18:52:40;14.90;;;9.55;;
46222;SDS011;31943;51.410;7.564;2023-02-15T18:55:12;13.80;;;9.82;;
46222;SDS011;31943;51.410;7.564;2023-02-15T18:57:41;12.02;;;8.93;;
46222;SDS011;31943;51.410;7.564;2023-02-15T19:00:12;14.10;;;9.77;;
46222;SDS011;31943;51.410;7.564;2023-02-15T19:02:45;14.98;;;9.40;;
46222;SDS011;31943;51.410;7.564;2023-02-15T19:05:13;15.30;;;9.38;;
46222;SDS011;31943;51.410;7.564;2023-02-15T19:07:39;16.77;;;11.68;;
46222;SDS011;31943;51.410;7.564;2023-02-15T19:10:06;15.93;;;12.07;;
46222;SDS011;31943;51.410;7.564;2023-02-15T19:12:38;16.45;;;11.40;;
46222;SDS011;31943;51.410;7.564;2023-02-15T19:15:08;17.30;;;11.15;;
46222;SDS011;31943;51.410;7.564;2023-02-15T19:17:46;18.05;;;11.95;;
46222;SDS011;31943;51.410;7.564;2023-02-15T19:20:15;15.55;;;11.88;;
46222;SDS011;31943;51.410;7.564;2023-02-15T19:22:51;16.35;;;11.77;;
46222;SDS011;31943;51.410;7.564;2023-02-15T19:25:18;18.13;;;13.32;;
46222;SDS011;31943;51.410;7.564;2023-02-15T19:27:51;16.80;;;11.80;;
46222;SDS011;31943;51.410;7.564;2023-02-15T19:30:20;16.13;;;12.37;;
46222;SDS011;31943;51.410;7.564;2023-02-15T19:32:50;20.90;;;14.43;;
46222;SDS011;31943;51.410;7.564;2023-02-15T19:35:17;18.23;;;12.90;;
46222;SDS011;31943;51.410;7.564;2023-02-15T19:37:45;18.33;;;13.23;;
46222;SDS011;31943;51.410;7.564;2023-02-15T19:40:17;19.00;;;13.73;;
46222;SDS011;31943;51.410;7.564;2023-02-15T19:42:46;19.75;;;13.20;;
46222;SDS011;31943;51.410;7.564;2023-02-15T19:45:18;19.20;;;12.18;;
46222;SDS011;31943;51.410;7.564;2023-02-15T19:47:47;17.85;;;12.73;;
46222;SDS011;31943;51.410;7.564;2023-02-15T19:50:17;17.52;;;12.52;;
46222;SDS011;31943;51.410;7.564;2023-02-15T19:52:49;17.40;;;12.25;;
46222;SDS011;31943;51.410;7.564;2023-02-15T19:55:17;17.55;;;12.55;;
46222;SDS011;31943;51.410;7.564;2023-02-15T19:57:50;20.42;;;13.73;;
46222;SDS011;31943;51.410;7.564;2023-02-15T20:00:19;18.70;;;12.60;;
46222;SDS011;31943;51.410;7.564;2023-02-15T20:02:46;20.70;;;13.40;;
46222;SDS011;31943;51.410;7.564;2023-02-15T20:05:12;17.92;;;12.75;;
46222;SDS011;31943;51.410;7.564;2023-02-15T20:07:40;19.30;;;13.43;;
46222;SDS011;31943;51.410;7.564;2023-02-15T20:10:13;19.30;;;13.57;;
46222;SDS011;31943;51.410;7.564;2023-02-15T20:12:41;21.77;;;12.32;;
46222;SDS011;31943;51.410;7.564;2023-02-15T20:15:15;21.35;;;13.60;;
46222;SDS011;31943;51.410;7.564;2023-02-15T20:17:43;17.55;;;11.80;;
46222;SDS011;31943;51.410;7.564;2023-02-15T20:20:11;20.10;;;14.10;;
46222;SDS011;31943;51.410;7.564;2023-02-15T20:22:37;23.23;;;14.35;;
46222;SDS011;31943;51.410;7.564;2023-02-15T20:25:12;17.90;;;13.88;;
46222;SDS011;31943;51.410;7.564;2023-02-15T20:27:54;18.98;;;14.13;;
46222;SDS011;31943;51.410;7.564;2023-02-15T20:30:22;17.30;;;12.35;;
46222;SDS011;31943;51.410;7.564;2023-02-15T20:32:49;18.50;;;13.90;;
46222;SDS011;31943;51.410;7.564;2023-02-15T20:35:16;19.95;;;14.27;;
46222;SDS011;31943;51.410;7.564;2023-02-15T20:37:48;19.15;;;14.52;;
46222;SDS011;31943;51.410;7.564;2023-02-15T20:40:19;20.05;;;14.65;;
46222;SDS011;31943;51.410;7.564;2023-02-15T20:42:49;18.92;;;13.48;;
46222;SDS011;31943;51.410;7.564;2023-02-15T20:45:18;16.83;;;13.30;;
46222;SDS011;31943;51.410;7.564;2023-02-15T20:47:49;19.58;;;13.77;;
46222;SDS011;31943;51.410;7.564;2023-02-15T20:50:18;18.98;;;13.57;;
46222;SDS011;31943;51.410;7.564;2023-02-15T20:52:55;20.23;;;14.77;;
46222;SDS011;31943;51.410;7.564;2023-02-15T20:55:24;18.92;;;13.40;;
46222;SDS011;31943;51.410;7.564;2023-02-15T20:57:54;18.65;;;15.05;;
46222;SDS011;31943;51.410;7.564;2023-02-15T21:00:21;18.58;;;13.43;;
46222;SDS011;31943;51.410;7.564;2023-02-15T21:02:54;19.35;;;14.32;;
46222;SDS011;31943;51.410;7.564;2023-02-15T21:05:23;17.38;;;13.88;;
46222;SDS011;31943;51.410;7.564;2023-02-15T21:07:54;19.48;;;13.80;;
46222;SDS011;31943;51.410;7.564;2023-02-15T21:10:25;22.35;;;14.85;;
46222;SDS011;31943;51.410;7.564;2023-02-15T21:12:52;23.25;;;16.30;;
46222;SDS011;31943;51.410;7.564;2023-02-15T21:15:25;22.98;;;15.07;;
46222;SDS011;31943;51.410;7.564;2023-02-15T21:17:54;20.10;;;13.80;;
46222;SDS011;31943;51.410;7.564;2023-02-15T21:20:21;20.30;;;14.65;;
46222;SDS011;31943;51.410;7.564;2023-02-15T21:22:47;23.17;;;15.93;;
46222;SDS011;31943;51.410;7.564;2023-02-15T21:25:21;22.17;;;15.50;;
46222;SDS011;31943;51.410;7.564;2023-02-15T21:27:51;18.20;;;14.25;;
46222;SDS011;31943;51.410;7.564;2023-02-15T21:30:19;22.88;;;15.73;;
46222;SDS011;31943;51.410;7.564;2023-02-15T21:32:47;20.10;;;14.15;;
46222;SDS011;31943;51.410;7.564;2023-02-15T21:35:13;20.02;;;15.40;;
46222;SDS011;31943;51.410;7.564;2023-02-15T21:37:40;25.00;;;15.30;;
46222;SDS011;31943;51.410;7.564;2023-02-15T21:40:13;21.53;;;15.07;;
46222;SDS011;31943;51.410;7.564;2023-02-15T21:43:04;20.40;;;14.43;;
46222;SDS011;31943;51.410;7.564;2023-02-15T21:45:38;22.52;;;14.90;;
46222;SDS011;31943;51.410;7.564;2023-02-15T21:48:05;21.15;;;15.55;;
46222;SDS011;31943;51.410;7.564;2023-02-15T21:50:33;21.45;;;14.80;;
46222;SDS011;31943;51.410;7.564;2023-02-15T21:53:02;23.35;;;15.55;;
46222;SDS011;31943;51.410;7.564;2023-02-15T21:58:03;23.15;;;15.88;;
46222;SDS011;31943;51.410;7.564;2023-02-15T22:00:32;18.75;;;15.02;;
46222;SDS011;31943;51.410;7.564;2023-02-15T22:02:58;21.88;;;15.43;;
46222;SDS011;31943;51.410;7.564;2023-02-15T22:05:26;21.13;;;14.23;;
46222;SDS011;31943;51.410;7.564;2023-02-15T22:08:01;21.45;;;15.15;;
46222;SDS011;31943;51.410;7.564;2023-02-15T22:10:29;22.83;;;16.33;;
46222;SDS011;31943;51.410;7.564;2023-02-15T22:13:01;21.83;;;15.43;;
46222;SDS011;31943;51.410;7.564;2023-02-15T22:15:40;22.63;;;15.60;;
46222;SDS011;31943;51.410;7.564;2023-02-15T22:18:08;21.02;;;15.90;;
46222;SDS011;31943;51.410;7.564;2023-02-15T22:20:45;20.58;;;15.30;;
46222;SDS011;31943;51.410;7.564;2023-02-15T22:23:14;21.30;;;15.63;;
46222;SDS011;31943;51.410;7.564;2023-02-15T22:25:42;21.77;;;15.23;;
46222;SDS011;31943;51.410;7.564;2023-02-15T22:28:13;21.35;;;15.65;;
46222;SDS011;31943;51.410;7.564;2023-02-15T22:30:39;23.17;;;15.45;;
46222;SDS011;31943;51.410;7.564;2023-02-15T22:33:08;25.13;;;17.13;;
46222;SDS011;31943;51.410;7.564;2023-02-15T22:35:46;29.75;;;18.73;;
46222;SDS011;31943;51.410;7.564;2023-02-15T22:38:12;21.95;;;15.68;;
46222;SDS011;31943;51.410;7.564;2023-02-15T22:40:39;23.25;;;16.30;;
46222;SDS011;31943;51.410;7.564;2023-02-15T22:43:06;25.65;;;17.73;;
46222;SDS011;31943;51.410;7.564;2023-02-15T22:45:44;23.58;;;16.27;;
46222;SDS011;31943;51.410;7.564;2023-02-15T22:48:11;21.65;;;16.38;;
46222;SDS011;31943;51.410;7.564;2023-02-15T22:50:47;25.30;;;16.42;;
46222;SDS011;31943;51.410;7.564;2023-02-15T22:53:29;23.98;;;17.23;;